Seaways Leyte — V7WA7 — position and weather

sailwx.info

Track history (hours):
 
Tides and Currents Weather Stations Pressure Air Temp Water Temp Dewpoint Dewpoint Depression Visibility Wind Speed Wind Dir Waves Ship Positions

Seaways Leyte

Last reported at 2018-Feb-06 00:47 UTC. Time now 2018-Feb-21 14:50 UTC.
Position N 26°04' W 115°10'.
Warning: this ship's position is 15 days out of date.

Length 229 m; draft 8.5 m.

Type: Tanker. MMSI: 538004255.

Date/timePositionNaut miles runAvg speedWind from/ knotsBaromVisibWave heightAir tempDewpointWater temp
2018-Feb-06 00:47N 26°04' W 115°10'516.3
2018-Feb-06 00:29N 26°07' W 115°13'7516.0
2018-Feb-05 19:46N 27°05' W 116°07'415.1
2018-Feb-05 19:29N 27°09' W 116°10'2015.1
2018-Feb-05 18:09N 27°25' W 116°23'5615.4
2018-Feb-05 14:30N 28°20' W 116°37'2715.5
2018-Feb-05 12:44N 28°47' W 116°43'4515.8
2018-Feb-05 09:52N 29°31' W 116°54'615.3
2018-Feb-05 09:29N 29°37' W 116°56'715.3
2018-Feb-05 09:00N 29°44' W 116°57'3115.3
2018-Feb-05 07:00N 30°14' W 117°05'1315.3
2018-Feb-05 06:09N 30°26' W 117°08'1015.3
2018-Feb-05 05:29N 30°36' W 117°11'8415.4
2018-Feb-05 00:00N 31°59' W 117°32'815.5
2018-Feb-04 23:30N 32°06' W 117°34'815.7
2018-Feb-04 23:00N 32°14' W 117°36'815.3
2018-Feb-04 22:31N 32°21' W 117°38'713.6
2018-Feb-04 22:00N 32°28' W 117°40'714.3
2018-Feb-04 21:30N 32°35' W 117°42'714.8
2018-Feb-04 21:01N 32°42' W 117°45'1514.7
2018-Feb-04 20:01N 32°55' W 117°53'714.3
2018-Feb-04 19:30N 33°01' W 117°56'611.8
2018-Feb-04 19:00N 33°07' W 117°59'611.5
2018-Feb-04 18:31N 33°12' W 118°02'611.6
2018-Feb-04 18:00N 33°17' W 118°05'611.6
2018-Feb-04 17:28N 33°23' W 118°08'2010.5
2018-Feb-04 15:31N 33°43' W 118°11'1 2.3
2018-Feb-04 14:59N 33°44' W 118°10'0 0.1
2018-Feb-04 14:29N 33°44' W 118°10'0 0.0
2018-Feb-04 13:59N 33°44' W 118°10'0 0.0
2018-Feb-04 13:29N 33°44' W 118°10'0 0.0
2018-Feb-04 06:05N 33°44' W 118°10'0 0.1
2018-Feb-04 05:56N 33°44' W 118°10'0 0.0
2018-Feb-04 05:23N 33°44' W 118°10'0 0.0
2018-Feb-04 04:59N 33°44' W 118°10'0 0.0
2018-Feb-04 04:29N 33°44' W 118°10'0 0.0
2018-Feb-04 03:59N 33°44' W 118°10'0 0.0
2018-Feb-04 02:59N 33°44' W 118°10'0 0.0
2018-Feb-04 01:38N 33°44' W 118°10'0 0.0
2018-Feb-04 01:29N 33°44' W 118°10'0 0.0
2018-Feb-04 00:56N 33°44' W 118°10'0 0.1
2018-Feb-04 00:29N 33°44' W 118°10'0 0.2
2018-Feb-03 23:59N 33°44' W 118°10'0 0.2
2018-Feb-03 23:31N 33°44' W 118°10'3 5.7
2018-Feb-03 23:00N 33°41' W 118°11'4 8.3
2018-Feb-03 22:30N 33°37' W 118°11'2 4.6
2018-Feb-03 22:00N 33°36' W 118°14'510.9
2018-Feb-03 21:30N 33°36' W 118°20'611.7
2018-Feb-03 21:00N 33°39' W 118°27'611.7
2018-Feb-03 20:31N 33°42' W 118°33'611.5
2018-Feb-03 20:01N 33°45' W 118°39'1711.1
2018-Feb-03 18:30N 33°51' W 118°57'511.2
2018-Feb-03 18:01N 33°50' W 119°03'611.0
2018-Feb-03 17:31N 33°48' W 119°10'612.1
2018-Feb-03 17:01N 33°46' W 119°17'1313.4
2018-Feb-03 16:00N 33°42' W 119°32'713.8
2018-Feb-03 15:30N 33°40' W 119°40'713.8
2018-Feb-03 15:00N 33°38' W 119°48'713.6
2018-Feb-03 14:27N 33°37' W 119°57'613.6
2018-Feb-03 14:01N 33°35' W 120°04'713.2
2018-Feb-03 13:31N 33°33' W 120°11'612.9
2018-Feb-03 13:00N 33°31' W 120°19'612.9
2018-Feb-03 12:30N 33°29' W 120°26'611.4
2018-Feb-03 12:01N 33°27' W 120°33'1 1.2
2018-Feb-03 11:30N 33°27' W 120°33'612.0
2018-Feb-03 11:00N 33°26' W 120°40'613.0
2018-Feb-03 10:31N 33°24' W 120°48'713.2
2018-Feb-03 09:59N 33°22' W 120°55'713.2
2018-Feb-03 09:29N 33°19' W 121°03'713.1
2018-Feb-03 08:57N 33°17' W 121°11'713.0
2018-Feb-03 08:25N 33°21' W 121°17'613.3
2018-Feb-03 08:00N 33°25' W 121°21'2113.5
2018-Feb-03 06:27N 33°43' W 121°35'613.5
2018-Feb-03 06:00N 33°48' W 121°39'713.4
2018-Feb-03 05:30N 33°53' W 121°44'713.5
2018-Feb-03 05:00N 33°59' W 121°48'1313.5
2018-Feb-03 04:00N 34°10' W 121°57'713.4
2018-Feb-03 03:30N 34°16' W 122°01'2013.4
2018-Feb-03 02:00N 34°33' W 122°15'613.2
2018-Feb-03 01:30N 34°38' W 122°19'713.2
2018-Feb-03 01:00N 34°44' W 122°24'713.2
2018-Feb-03 00:30N 34°49' W 122°28'713.5
2018-Feb-03 00:00N 34°55' W 122°32'813.4
2018-Feb-02 23:26N 35°01' W 122°38'713.3
2018-Feb-02 22:54N 35°07' W 122°42'513.3
2018-Feb-02 22:31N 35°11' W 122°46'713.2
2018-Feb-02 22:00N 35°17' W 122°50'813.3
2018-Feb-02 21:26N 35°23' W 122°56'613.3
2018-Feb-02 21:00N 35°28' W 122°60'713.3
2018-Feb-02 20:30N 35°34' W 123°02'713.6
2018-Feb-02 20:00N 35°41' W 123°04'1313.3
2018-Feb-02 19:00N 35°54' W 123°07'713.1
2018-Feb-02 18:30N 36°00' W 123°09'713.2
2018-Feb-02 18:00N 36°07' W 123°10'713.6
2018-Feb-02 17:30N 36°13' W 123°12'713.5
2018-Feb-02 17:00N 36°20' W 123°14'713.5
2018-Feb-02 16:30N 36°27' W 123°15'1413.5
2018-Feb-02 15:30N 36°40' W 123°18'1413.6
2018-Feb-02 14:27N 36°54' W 123°22'613.4
2018-Feb-02 14:00N 36°60' W 123°24'713.4
2018-Feb-02 13:30N 37°06' W 123°26'612.7
2018-Feb-02 13:00N 37°12' W 123°23'713.4
2018-Feb-02 12:30N 37°17' W 123°18'713.6
2018-Feb-02 12:00N 37°23' W 123°13'713.8
2018-Feb-02 11:30N 37°29' W 123°08'713.6
2018-Feb-02 11:00N 37°34' W 123°03'713.6
2018-Feb-02 10:30N 37°38' W 122°56'713.7
2018-Feb-02 10:00N 37°42' W 122°49'713.1
2018-Feb-02 09:31N 37°45' W 122°42'611.2
2018-Feb-02 09:00N 37°47' W 122°35'612.6
2018-Feb-02 08:30N 37°50' W 122°28'5 9.3
2018-Feb-02 08:01N 37°54' W 122°26'611.3
2018-Feb-02 07:30N 37°60' W 122°25'611.6
2018-Feb-02 07:00N 38°03' W 122°19'511.0
2018-Feb-02 06:30N 38°04' W 122°12'4 0.2
2018-Feb-01 08:01N 38°03' W 122°08'2 4.3
2018-Feb-01 07:27N 38°03' W 122°11'510.7
2018-Feb-01 07:00N 38°04' W 122°17'611.8
2018-Feb-01 06:30N 38°01' W 122°24'612.3
2018-Feb-01 06:00N 37°56' W 122°27'612.0
2018-Feb-01 05:30N 37°50' W 122°24'4 8.6
2018-Feb-01 05:00N 37°46' W 122°21'0 0.7
2018-Feb-01 04:30N 37°46' W 122°21'0 0.0
2018-Feb-01 04:00N 37°46' W 122°21'0 0.2
2018-Feb-01 03:00N 37°46' W 122°21'0 0.1
2018-Feb-01 02:30N 37°46' W 122°21'0 0.0
2018-Feb-01 02:00N 37°46' W 122°21'0 0.0
2018-Feb-01 01:30N 37°46' W 122°21'0 0.0
2018-Feb-01 01:00N 37°46' W 122°21'0 0.0
2018-Feb-01 00:30N 37°46' W 122°21'0 0.0
2018-Feb-01 00:00N 37°46' W 122°21'0 0.0
2018-Jan-31 23:00N 37°46' W 122°21'0 0.1
2018-Jan-31 22:30N 37°46' W 122°21'0 0.0
2018-Jan-31 21:00N 37°46' W 122°21'0 0.2
2018-Jan-31 20:30N 37°46' W 122°21'0 0.2
2018-Jan-31 20:00N 37°46' W 122°21'0 0.3
2018-Jan-31 19:30N 37°46' W 122°21'0 0.0
2018-Jan-31 19:00N 37°46' W 122°21'0 0.1
2018-Jan-31 18:30N 37°46' W 122°21'0 0.0
2018-Jan-31 18:00N 37°46' W 122°21'0 0.0
2018-Jan-31 17:30N 37°46' W 122°21'0 0.1
2018-Jan-31 17:00N 37°46' W 122°21'0 0.0
2018-Jan-31 16:30N 37°46' W 122°21'0 0.0
2018-Jan-31 16:00N 37°46' W 122°21'0 0.0
2018-Jan-31 15:30N 37°46' W 122°21'0 0.0
2018-Jan-31 14:57N 37°46' W 122°21'0 0.0
2018-Jan-31 14:30N 37°46' W 122°21'0 0.2
2018-Jan-31 13:00N 37°46' W 122°21'0 0.0
2018-Jan-31 12:30N 37°46' W 122°21'0 0.0
2018-Jan-31 12:00N 37°46' W 122°21'0 0.0
2018-Jan-31 11:30N 37°46' W 122°21'0 0.0
2018-Jan-31 11:00N 37°46' W 122°21'0 0.0
2018-Jan-31 10:30N 37°46' W 122°21'0 0.0
2018-Jan-31 10:00N 37°46' W 122°21'0 0.1
2018-Jan-31 09:30N 37°46' W 122°21'0 0.3
2018-Jan-31 09:00N 37°46' W 122°21'0 0.3
2018-Jan-31 08:30N 37°46' W 122°21'0 0.1
2018-Jan-31 08:00N 37°46' W 122°21'0 0.0
2018-Jan-31 07:30N 37°46' W 122°21'0 0.0
2018-Jan-31 07:00N 37°46' W 122°21'0 0.0
2018-Jan-31 06:30N 37°46' W 122°21'0 0.0
2018-Jan-31 06:00N 37°46' W 122°21'0 0.0
2018-Jan-31 05:30N 37°46' W 122°21'0 0.0
2018-Jan-31 05:00N 37°46' W 122°21'0 0.0
2018-Jan-31 04:30N 37°46' W 122°21'0 0.1
2018-Jan-31 04:00N 37°46' W 122°21'0 0.0
2018-Jan-31 03:30N 37°46' W 122°21'0 0.4
2018-Jan-31 03:00N 37°46' W 122°21'0 0.2
2018-Jan-31 02:30N 37°46' W 122°21'0 0.1
2018-Jan-31 02:00N 37°46' W 122°21'0 0.0
2018-Jan-31 01:30N 37°46' W 122°21'0 0.0
2018-Jan-31 01:00N 37°46' W 122°21'0 0.1
2018-Jan-31 00:00N 37°46' W 122°21'0 0.0
2018-Jan-30 23:30N 37°46' W 122°21'0 0.0
2018-Jan-30 23:00N 37°46' W 122°21'0 0.0
2018-Jan-30 22:30N 37°46' W 122°21'0 0.0
2018-Jan-30 21:30N 37°46' W 122°21'0 0.1
2018-Jan-30 21:00N 37°46' W 122°21'0 0.0
2018-Jan-30 20:30N 37°46' W 122°21'0 0.0
2018-Jan-30 20:00N 37°46' W 122°21'0 0.2
2018-Jan-30 19:30N 37°46' W 122°21'0 0.3
2018-Jan-30 19:00N 37°46' W 122°21'0 0.2
2018-Jan-30 18:30N 37°46' W 122°21'0 0.1
2018-Jan-30 18:00N 37°46' W 122°21'0 0.0
2018-Jan-30 17:30N 37°46' W 122°21'2 5.0
2018-Jan-30 17:00N 37°48' W 122°22'612.3
2018-Jan-30 16:30N 37°48' W 122°30'714.9
2018-Jan-30 16:01N 37°46' W 122°39'510.8
2018-Jan-30 15:31N 37°42' W 122°44'510.7
2018-Jan-30 15:01N 37°39' W 122°50'612.8
2018-Jan-30 14:31N 37°36' W 122°57'1211.6
2018-Jan-30 13:31N 37°26' W 123°05'612.5
2018-Jan-30 13:01N 37°20' W 123°07'612.5
2018-Jan-30 12:30N 37°14' W 123°08'612.6
2018-Jan-30 12:00N 37°08' W 123°08'612.7
2018-Jan-30 11:31N 37°01' W 123°08'1312.8
2018-Jan-30 10:31N 36°49' W 123°07'1312.7
2018-Jan-30 09:31N 36°36' W 123°06'612.9
2018-Jan-30 09:01N 36°29' W 123°06'713.0
2018-Jan-30 08:30N 36°23' W 123°06'613.0
2018-Jan-30 08:01N 36°16' W 123°05'612.9
2018-Jan-30 07:31N 36°10' W 123°05'612.8
2018-Jan-30 07:01N 36°04' W 123°05'612.6
2018-Jan-30 06:30N 35°57' W 123°05'612.4
2018-Jan-30 06:00N 35°51' W 123°05'612.8
2018-Jan-30 05:31N 35°45' W 123°05'612.7
2018-Jan-30 05:00N 35°38' W 123°04'2 3.2
2018-Jan-30 04:31N 35°37' W 123°04'4 5.8
2018-Jan-30 03:54N 35°33' W 123°04'512.2
2018-Jan-30 03:28N 35°28' W 123°03'4212.8
2018-Jan-30 00:10N 34°53' W 122°34'212.9
2018-Jan-30 00:00N 34°52' W 122°32'712.8
2018-Jan-29 23:29N 34°46' W 122°27'713.0
2018-Jan-29 22:59N 34°41' W 122°23'613.0
2018-Jan-29 22:29N 34°36' W 122°18'713.4
2018-Jan-29 21:59N 34°31' W 122°13'613.0
2018-Jan-29 21:31N 34°26' W 122°09'713.0
2018-Jan-29 21:00N 34°20' W 122°04'713.4
2018-Jan-29 20:29N 34°15' W 121°59'613.3
2018-Jan-29 20:00N 34°10' W 121°54'713.1
2018-Jan-29 19:30N 34°04' W 121°50'713.1
2018-Jan-29 19:00N 33°59' W 121°45'713.2
2018-Jan-29 18:30N 33°54' W 121°40'612.8
2018-Jan-29 18:00N 33°49' W 121°36'712.9
2018-Jan-29 17:30N 33°43' W 121°31'712.7
2018-Jan-29 16:59N 33°38' W 121°26'612.7
2018-Jan-29 16:30N 33°33' W 121°22'612.9
2018-Jan-29 16:00N 33°28' W 121°17'713.2
2018-Jan-29 15:30N 33°23' W 121°13'613.0
2018-Jan-29 15:00N 33°17' W 121°08'612.9
2018-Jan-29 14:30N 33°12' W 121°03'613.0
2018-Jan-29 14:00N 33°07' W 120°59'612.9
2018-Jan-29 13:30N 33°02' W 120°54'612.5
2018-Jan-29 13:00N 32°57' W 120°50'612.4
2018-Jan-29 12:30N 32°52' W 120°46'612.7
2018-Jan-29 12:00N 32°47' W 120°41'612.3
2018-Jan-29 11:30N 32°42' W 120°37'612.2
2018-Jan-29 11:00N 32°37' W 120°33'612.4
2018-Jan-29 10:30N 32°32' W 120°28'612.4
2018-Jan-29 10:00N 32°27' W 120°23'612.6
2018-Jan-29 09:30N 32°25' W 120°16'712.8
2018-Jan-29 08:58N 32°23' W 120°08'612.6
2018-Jan-29 08:30N 32°22' W 120°02'612.5
2018-Jan-29 08:00N 32°21' W 119°54'612.2
2018-Jan-29 07:30N 32°20' W 119°47'7512.2
2018-Jan-29 01:21N 32°36' W 118°20'713.2
2018-Jan-29 00:50N 32°38' W 118°12'513.0
2018-Jan-29 00:25N 32°39' W 118°06'613.1
2018-Jan-29 00:00N 32°45' W 118°06'713.3
2018-Jan-28 23:30N 32°51' W 118°06'613.0
2018-Jan-28 23:00N 32°58' W 118°06'612.5
2018-Jan-28 22:30N 33°04' W 118°06'611.7
2018-Jan-28 22:00N 33°10' W 118°06'612.7
2018-Jan-28 21:30N 33°16' W 118°06'911.4
2018-Jan-28 20:42N 33°25' W 118°09'411.7
2018-Jan-28 20:21N 33°29' W 118°10'411.7
2018-Jan-28 20:00N 33°33' W 118°12'510.9
2018-Jan-28 19:30N 33°38' W 118°12'5 9.4
2018-Jan-28 19:00N 33°43' W 118°11'3 6.6
2018-Jan-28 18:30N 33°46' W 118°13'1 1.0
2018-Jan-28 17:58N 33°46' W 118°13'0 0.0
2018-Jan-28 17:16N 33°46' W 118°13'0 0.0
2018-Jan-28 16:49N 33°46' W 118°13'0 0.0
2018-Jan-28 16:19N 33°46' W 118°13'0 0.0
2018-Jan-28 15:40N 33°46' W 118°13'0 0.0
2018-Jan-28 15:28N 33°46' W 118°13'0 0.0
2018-Jan-28 14:58N 33°46' W 118°13'0 0.0
2018-Jan-28 14:10N 33°46' W 118°13'0 0.0
2018-Jan-28 13:46N 33°46' W 118°13'0 0.0
2018-Jan-28 13:22N 33°46' W 118°13'0 0.0
2018-Jan-28 01:28N 33°46' W 118°13'0 0.0
2018-Jan-28 00:58N 33°46' W 118°13'0 0.0
2018-Jan-28 00:19N 33°46' W 118°13'0 0.0
2018-Jan-27 23:58N 33°46' W 118°13'0 0.0
2018-Jan-27 23:28N 33°46' W 118°13'0 0.0
2018-Jan-27 22:58N 33°46' W 118°13'0 0.0
2018-Jan-27 22:28N 33°46' W 118°13'0 0.0
2018-Jan-27 21:58N 33°46' W 118°13'0 0.0
2018-Jan-27 21:25N 33°46' W 118°13'0 0.0
2018-Jan-27 20:58N 33°46' W 118°13'0 0.0
2018-Jan-27 20:28N 33°46' W 118°13'0 0.0
2018-Jan-27 19:58N 33°46' W 118°13'0 0.0
2018-Jan-27 19:28N 33°46' W 118°13'0 0.0
2018-Jan-27 18:58N 33°46' W 118°13'0 0.0
2018-Jan-27 18:28N 33°46' W 118°13'0 0.0
2018-Jan-27 17:58N 33°46' W 118°13'0 0.0
2018-Jan-27 17:28N 33°46' W 118°13'0 0.0
2018-Jan-27 16:58N 33°46' W 118°13'0 0.0
2018-Jan-27 16:28N 33°46' W 118°13'0 0.0
2018-Jan-27 15:58N 33°46' W 118°13'0 0.0
2018-Jan-27 15:28N 33°46' W 118°13'0 0.0
2018-Jan-27 14:58N 33°46' W 118°13'0 0.0
2018-Jan-27 12:19N 33°46' W 118°13'0 0.3
2018-Jan-27 12:00N 33°46' W 118°13'1 2.3
2018-Jan-27 11:30N 33°45' W 118°13'3 6.4
2018-Jan-27 11:00N 33°42' W 118°11'4 7.1
2018-Jan-27 10:30N 33°39' W 118°11'611.2
2018-Jan-27 10:00N 33°33' W 118°09'5 9.9
2018-Jan-27 09:30N 33°29' W 118°07'510.6
2018-Jan-27 09:00N 33°24' W 118°05'611.7
2018-Jan-27 08:30N 33°18' W 118°02'612.0
2018-Jan-27 08:00N 33°13' W 117°60'612.0
2018-Jan-27 07:30N 33°07' W 117°57'612.1
2018-Jan-27 07:00N 33°02' W 117°54'612.0
2018-Jan-27 06:30N 32°56' W 117°51'611.9
2018-Jan-27 06:00N 32°51' W 117°49'612.2
2018-Jan-27 05:30N 32°45' W 117°46'612.3
2018-Jan-27 05:00N 32°39' W 117°44'4 7.4
2018-Jan-27 04:30N 32°36' W 117°42'612.0
2018-Jan-27 04:00N 32°30' W 117°40'611.9
2018-Jan-27 03:30N 32°24' W 117°38'612.1
2018-Jan-27 03:00N 32°18' W 117°37'  
Track history (hours):
 
Tides and Currents Weather Stations Pressure Air Temp Water Temp Dewpoint Dewpoint Depression Visibility Wind Speed Wind Dir Waves Ship Positions

Seaways Leyte

Last reported at 2018-Feb-06 00:47 UTC. Time now 2018-Feb-21 14:50 UTC.
Position N 26°04' W 115°10'.
Warning: this ship's position is 15 days out of date.

Length 229 m; draft 8.5 m.

Type: Tanker. MMSI: 538004255.

Date/timePositionNaut miles runAvg speedWind from/ knotsBaromVisibWave heightAir tempDewpointWater temp
2018-Feb-06 00:47N 26°04' W 115°10'516.3
2018-Feb-06 00:29N 26°07' W 115°13'7516.0
2018-Feb-05 19:46N 27°05' W 116°07'415.1
2018-Feb-05 19:29N 27°09' W 116°10'2015.1
2018-Feb-05 18:09N 27°25' W 116°23'5615.4
2018-Feb-05 14:30N 28°20' W 116°37'2715.5
2018-Feb-05 12:44N 28°47' W 116°43'4515.8
2018-Feb-05 09:52N 29°31' W 116°54'615.3
2018-Feb-05 09:29N 29°37' W 116°56'715.3
2018-Feb-05 09:00N 29°44' W 116°57'3115.3
2018-Feb-05 07:00N 30°14' W 117°05'1315.3
2018-Feb-05 06:09N 30°26' W 117°08'1015.3
2018-Feb-05 05:29N 30°36' W 117°11'8415.4
2018-Feb-05 00:00N 31°59' W 117°32'815.5
2018-Feb-04 23:30N 32°06' W 117°34'815.7
2018-Feb-04 23:00N 32°14' W 117°36'815.3
2018-Feb-04 22:31N 32°21' W 117°38'713.6
2018-Feb-04 22:00N 32°28' W 117°40'714.3
2018-Feb-04 21:30N 32°35' W 117°42'714.8
2018-Feb-04 21:01N 32°42' W 117°45'1514.7
2018-Feb-04 20:01N 32°55' W 117°53'714.3
2018-Feb-04 19:30N 33°01' W 117°56'611.8
2018-Feb-04 19:00N 33°07' W 117°59'611.5
2018-Feb-04 18:31N 33°12' W 118°02'611.6
2018-Feb-04 18:00N 33°17' W 118°05'611.6
2018-Feb-04 17:28N 33°23' W 118°08'2010.5
2018-Feb-04 15:31N 33°43' W 118°11'1 2.3
2018-Feb-04 14:59N 33°44' W 118°10'0 0.1
2018-Feb-04 14:29N 33°44' W 118°10'0 0.0
2018-Feb-04 13:59N 33°44' W 118°10'0 0.0
2018-Feb-04 13:29N 33°44' W 118°10'0 0.0
2018-Feb-04 06:05N 33°44' W 118°10'0 0.1
2018-Feb-04 05:56N 33°44' W 118°10'0 0.0
2018-Feb-04 05:23N 33°44' W 118°10'0 0.0
2018-Feb-04 04:59N 33°44' W 118°10'0 0.0
2018-Feb-04 04:29N 33°44' W 118°10'0 0.0
2018-Feb-04 03:59N 33°44' W 118°10'0 0.0
2018-Feb-04 02:59N 33°44' W 118°10'0 0.0
2018-Feb-04 01:38N 33°44' W 118°10'0 0.0
2018-Feb-04 01:29N 33°44' W 118°10'0 0.0
2018-Feb-04 00:56N 33°44' W 118°10'0 0.1
2018-Feb-04 00:29N 33°44' W 118°10'0 0.2
2018-Feb-03 23:59N 33°44' W 118°10'0 0.2
2018-Feb-03 23:31N 33°44' W 118°10'3 5.7
2018-Feb-03 23:00N 33°41' W 118°11'4 8.3
2018-Feb-03 22:30N 33°37' W 118°11'2 4.6
2018-Feb-03 22:00N 33°36' W 118°14'510.9
2018-Feb-03 21:30N 33°36' W 118°20'611.7
2018-Feb-03 21:00N 33°39' W 118°27'611.7
2018-Feb-03 20:31N 33°42' W 118°33'611.5
2018-Feb-03 20:01N 33°45' W 118°39'1711.1
2018-Feb-03 18:30N 33°51' W 118°57'511.2
2018-Feb-03 18:01N 33°50' W 119°03'611.0
2018-Feb-03 17:31N 33°48' W 119°10'612.1
2018-Feb-03 17:01N 33°46' W 119°17'1313.4
2018-Feb-03 16:00N 33°42' W 119°32'713.8
2018-Feb-03 15:30N 33°40' W 119°40'713.8
2018-Feb-03 15:00N 33°38' W 119°48'713.6
2018-Feb-03 14:27N 33°37' W 119°57'613.6
2018-Feb-03 14:01N 33°35' W 120°04'713.2
2018-Feb-03 13:31N 33°33' W 120°11'612.9
2018-Feb-03 13:00N 33°31' W 120°19'612.9
2018-Feb-03 12:30N 33°29' W 120°26'611.4
2018-Feb-03 12:01N 33°27' W 120°33'1 1.2
2018-Feb-03 11:30N 33°27' W 120°33'612.0
2018-Feb-03 11:00N 33°26' W 120°40'613.0
2018-Feb-03 10:31N 33°24' W 120°48'713.2
2018-Feb-03 09:59N 33°22' W 120°55'713.2
2018-Feb-03 09:29N 33°19' W 121°03'713.1
2018-Feb-03 08:57N 33°17' W 121°11'713.0
2018-Feb-03 08:25N 33°21' W 121°17'613.3
2018-Feb-03 08:00N 33°25' W 121°21'2113.5
2018-Feb-03 06:27N 33°43' W 121°35'613.5
2018-Feb-03 06:00N 33°48' W 121°39'713.4
2018-Feb-03 05:30N 33°53' W 121°44'713.5
2018-Feb-03 05:00N 33°59' W 121°48'1313.5
2018-Feb-03 04:00N 34°10' W 121°57'713.4
2018-Feb-03 03:30N 34°16' W 122°01'2013.4
2018-Feb-03 02:00N 34°33' W 122°15'613.2
2018-Feb-03 01:30N 34°38' W 122°19'713.2
2018-Feb-03 01:00N 34°44' W 122°24'713.2
2018-Feb-03 00:30N 34°49' W 122°28'713.5
2018-Feb-03 00:00N 34°55' W 122°32'813.4
2018-Feb-02 23:26N 35°01' W 122°38'713.3
2018-Feb-02 22:54N 35°07' W 122°42'513.3
2018-Feb-02 22:31N 35°11' W 122°46'713.2
2018-Feb-02 22:00N 35°17' W 122°50'813.3
2018-Feb-02 21:26N 35°23' W 122°56'613.3
2018-Feb-02 21:00N 35°28' W 122°60'713.3
2018-Feb-02 20:30N 35°34' W 123°02'713.6
2018-Feb-02 20:00N 35°41' W 123°04'1313.3
2018-Feb-02 19:00N 35°54' W 123°07'713.1
2018-Feb-02 18:30N 36°00' W 123°09'713.2
2018-Feb-02 18:00N 36°07' W 123°10'713.6
2018-Feb-02 17:30N 36°13' W 123°12'713.5
2018-Feb-02 17:00N 36°20' W 123°14'713.5
2018-Feb-02 16:30N 36°27' W 123°15'1413.5
2018-Feb-02 15:30N 36°40' W 123°18'1413.6
2018-Feb-02 14:27N 36°54' W 123°22'613.4
2018-Feb-02 14:00N 36°60' W 123°24'713.4
2018-Feb-02 13:30N 37°06' W 123°26'612.7
2018-Feb-02 13:00N 37°12' W 123°23'713.4
2018-Feb-02 12:30N 37°17' W 123°18'713.6
2018-Feb-02 12:00N 37°23' W 123°13'713.8
2018-Feb-02 11:30N 37°29' W 123°08'713.6
2018-Feb-02 11:00N 37°34' W 123°03'713.6
2018-Feb-02 10:30N 37°38' W 122°56'713.7
2018-Feb-02 10:00N 37°42' W 122°49'713.1
2018-Feb-02 09:31N 37°45' W 122°42'611.2
2018-Feb-02 09:00N 37°47' W 122°35'612.6
2018-Feb-02 08:30N 37°50' W 122°28'5 9.3
2018-Feb-02 08:01N 37°54' W 122°26'611.3
2018-Feb-02 07:30N 37°60' W 122°25'611.6
2018-Feb-02 07:00N 38°03' W 122°19'511.0
2018-Feb-02 06:30N 38°04' W 122°12'4 0.2
2018-Feb-01 08:01N 38°03' W 122°08'2 4.3
2018-Feb-01 07:27N 38°03' W 122°11'510.7
2018-Feb-01 07:00N 38°04' W 122°17'611.8
2018-Feb-01 06:30N 38°01' W 122°24'612.3
2018-Feb-01 06:00N 37°56' W 122°27'612.0
2018-Feb-01 05:30N 37°50' W 122°24'4 8.6
2018-Feb-01 05:00N 37°46' W 122°21'0 0.7
2018-Feb-01 04:30N 37°46' W 122°21'0 0.0
2018-Feb-01 04:00N 37°46' W 122°21'0 0.2
2018-Feb-01 03:00N 37°46' W 122°21'0 0.1
2018-Feb-01 02:30N 37°46' W 122°21'0 0.0
2018-Feb-01 02:00N 37°46' W 122°21'0 0.0
2018-Feb-01 01:30N 37°46' W 122°21'0 0.0
2018-Feb-01 01:00N 37°46' W 122°21'0 0.0
2018-Feb-01 00:30N 37°46' W 122°21'0 0.0
2018-Feb-01 00:00N 37°46' W 122°21'0 0.0
2018-Jan-31 23:00N 37°46' W 122°21'0 0.1
2018-Jan-31 22:30N 37°46' W 122°21'0 0.0
2018-Jan-31 21:00N 37°46' W 122°21'0 0.2
2018-Jan-31 20:30N 37°46' W 122°21'0 0.2
2018-Jan-31 20:00N 37°46' W 122°21'0 0.3
2018-Jan-31 19:30N 37°46' W 122°21'0 0.0
2018-Jan-31 19:00N 37°46' W 122°21'0 0.1
2018-Jan-31 18:30N 37°46' W 122°21'0 0.0
2018-Jan-31 18:00N 37°46' W 122°21'0 0.0
2018-Jan-31 17:30N 37°46' W 122°21'0 0.1
2018-Jan-31 17:00N 37°46' W 122°21'0 0.0
2018-Jan-31 16:30N 37°46' W 122°21'0 0.0
2018-Jan-31 16:00N 37°46' W 122°21'0 0.0
2018-Jan-31 15:30N 37°46' W 122°21'0 0.0
2018-Jan-31 14:57N 37°46' W 122°21'0 0.0
2018-Jan-31 14:30N 37°46' W 122°21'0 0.2
2018-Jan-31 13:00N 37°46' W 122°21'0 0.0
2018-Jan-31 12:30N 37°46' W 122°21'0 0.0
2018-Jan-31 12:00N 37°46' W 122°21'0 0.0
2018-Jan-31 11:30N 37°46' W 122°21'0 0.0
2018-Jan-31 11:00N 37°46' W 122°21'0 0.0
2018-Jan-31 10:30N 37°46' W 122°21'0 0.0
2018-Jan-31 10:00N 37°46' W 122°21'0 0.1
2018-Jan-31 09:30N 37°46' W 122°21'0 0.3
2018-Jan-31 09:00N 37°46' W 122°21'0 0.3
2018-Jan-31 08:30N 37°46' W 122°21'0 0.1
2018-Jan-31 08:00N 37°46' W 122°21'0 0.0
2018-Jan-31 07:30N 37°46' W 122°21'0 0.0
2018-Jan-31 07:00N 37°46' W 122°21'0 0.0
2018-Jan-31 06:30N 37°46' W 122°21'0 0.0
2018-Jan-31 06:00N 37°46' W 122°21'0 0.0
2018-Jan-31 05:30N 37°46' W 122°21'0 0.0
2018-Jan-31 05:00N 37°46' W 122°21'0 0.0
2018-Jan-31 04:30N 37°46' W 122°21'0 0.1
2018-Jan-31 04:00N 37°46' W 122°21'0 0.0
2018-Jan-31 03:30N 37°46' W 122°21'0 0.4
2018-Jan-31 03:00N 37°46' W 122°21'0 0.2
2018-Jan-31 02:30N 37°46' W 122°21'0 0.1
2018-Jan-31 02:00N 37°46' W 122°21'0 0.0
2018-Jan-31 01:30N 37°46' W 122°21'0 0.0
2018-Jan-31 01:00N 37°46' W 122°21'0 0.1
2018-Jan-31 00:00N 37°46' W 122°21'0 0.0
2018-Jan-30 23:30N 37°46' W 122°21'0 0.0
2018-Jan-30 23:00N 37°46' W 122°21'0 0.0
2018-Jan-30 22:30N 37°46' W 122°21'0 0.0
2018-Jan-30 21:30N 37°46' W 122°21'0 0.1
2018-Jan-30 21:00N 37°46' W 122°21'0 0.0
2018-Jan-30 20:30N 37°46' W 122°21'0 0.0
2018-Jan-30 20:00N 37°46' W 122°21'0 0.2
2018-Jan-30 19:30N 37°46' W 122°21'0 0.3
2018-Jan-30 19:00N 37°46' W 122°21'0 0.2
2018-Jan-30 18:30N 37°46' W 122°21'0 0.1
2018-Jan-30 18:00N 37°46' W 122°21'0 0.0
2018-Jan-30 17:30N 37°46' W 122°21'2 5.0
2018-Jan-30 17:00N 37°48' W 122°22'612.3
2018-Jan-30 16:30N 37°48' W 122°30'714.9
2018-Jan-30 16:01N 37°46' W 122°39'510.8
2018-Jan-30 15:31N 37°42' W 122°44'510.7
2018-Jan-30 15:01N 37°39' W 122°50'612.8
2018-Jan-30 14:31N 37°36' W 122°57'1211.6
2018-Jan-30 13:31N 37°26' W 123°05'612.5
2018-Jan-30 13:01N 37°20' W 123°07'612.5
2018-Jan-30 12:30N 37°14' W 123°08'612.6
2018-Jan-30 12:00N 37°08' W 123°08'612.7
2018-Jan-30 11:31N 37°01' W 123°08'1312.8
2018-Jan-30 10:31N 36°49' W 123°07'1312.7
2018-Jan-30 09:31N 36°36' W 123°06'612.9
2018-Jan-30 09:01N 36°29' W 123°06'713.0
2018-Jan-30 08:30N 36°23' W 123°06'613.0
2018-Jan-30 08:01N 36°16' W 123°05'612.9
2018-Jan-30 07:31N 36°10' W 123°05'612.8
2018-Jan-30 07:01N 36°04' W 123°05'612.6
2018-Jan-30 06:30N 35°57' W 123°05'612.4
2018-Jan-30 06:00N 35°51' W 123°05'612.8
2018-Jan-30 05:31N 35°45' W 123°05'612.7
2018-Jan-30 05:00N 35°38' W 123°04'2 3.2
2018-Jan-30 04:31N 35°37' W 123°04'4 5.8
2018-Jan-30 03:54N 35°33' W 123°04'512.2
2018-Jan-30 03:28N 35°28' W 123°03'4212.8
2018-Jan-30 00:10N 34°53' W 122°34'212.9
2018-Jan-30 00:00N 34°52' W 122°32'712.8
2018-Jan-29 23:29N 34°46' W 122°27'713.0
2018-Jan-29 22:59N 34°41' W 122°23'613.0
2018-Jan-29 22:29N 34°36' W 122°18'713.4
2018-Jan-29 21:59N 34°31' W 122°13'613.0
2018-Jan-29 21:31N 34°26' W 122°09'713.0
2018-Jan-29 21:00N 34°20' W 122°04'713.4
2018-Jan-29 20:29N 34°15' W 121°59'613.3
2018-Jan-29 20:00N 34°10' W 121°54'713.1
2018-Jan-29 19:30N 34°04' W 121°50'713.1
2018-Jan-29 19:00N 33°59' W 121°45'713.2
2018-Jan-29 18:30N 33°54' W 121°40'612.8
2018-Jan-29 18:00N 33°49' W 121°36'712.9
2018-Jan-29 17:30N 33°43' W 121°31'712.7
2018-Jan-29 16:59N 33°38' W 121°26'612.7
2018-Jan-29 16:30N 33°33' W 121°22'612.9
2018-Jan-29 16:00N 33°28' W 121°17'713.2
2018-Jan-29 15:30N 33°23' W 121°13'613.0
2018-Jan-29 15:00N 33°17' W 121°08'612.9
2018-Jan-29 14:30N 33°12' W 121°03'613.0
2018-Jan-29 14:00N 33°07' W 120°59'612.9
2018-Jan-29 13:30N 33°02' W 120°54'612.5
2018-Jan-29 13:00N 32°57' W 120°50'612.4
2018-Jan-29 12:30N 32°52' W 120°46'612.7
2018-Jan-29 12:00N 32°47' W 120°41'612.3
2018-Jan-29 11:30N 32°42' W 120°37'612.2
2018-Jan-29 11:00N 32°37' W 120°33'612.4
2018-Jan-29 10:30N 32°32' W 120°28'612.4
2018-Jan-29 10:00N 32°27' W 120°23'612.6
2018-Jan-29 09:30N 32°25' W 120°16'712.8
2018-Jan-29 08:58N 32°23' W 120°08'612.6
2018-Jan-29 08:30N 32°22' W 120°02'612.5
2018-Jan-29 08:00N 32°21' W 119°54'612.2
2018-Jan-29 07:30N 32°20' W 119°47'7512.2
2018-Jan-29 01:21N 32°36' W 118°20'713.2
2018-Jan-29 00:50N 32°38' W 118°12'513.0
2018-Jan-29 00:25N 32°39' W 118°06'613.1
2018-Jan-29 00:00N 32°45' W 118°06'713.3
2018-Jan-28 23:30N 32°51' W 118°06'613.0
2018-Jan-28 23:00N 32°58' W 118°06'612.5
2018-Jan-28 22:30N 33°04' W 118°06'611.7
2018-Jan-28 22:00N 33°10' W 118°06'612.7
2018-Jan-28 21:30N 33°16' W 118°06'911.4
2018-Jan-28 20:42N 33°25' W 118°09'411.7
2018-Jan-28 20:21N 33°29' W 118°10'411.7
2018-Jan-28 20:00N 33°33' W 118°12'510.9
2018-Jan-28 19:30N 33°38' W 118°12'5 9.4
2018-Jan-28 19:00N 33°43' W 118°11'3 6.6
2018-Jan-28 18:30N 33°46' W 118°13'1 1.0
2018-Jan-28 17:58N 33°46' W 118°13'0 0.0
2018-Jan-28 17:16N 33°46' W 118°13'0 0.0
2018-Jan-28 16:49N 33°46' W 118°13'0 0.0
2018-Jan-28 16:19N 33°46' W 118°13'0 0.0
2018-Jan-28 15:40N 33°46' W 118°13'0 0.0
2018-Jan-28 15:28N 33°46' W 118°13'0 0.0
2018-Jan-28 14:58N 33°46' W 118°13'0 0.0
2018-Jan-28 14:10N 33°46' W 118°13'0 0.0
2018-Jan-28 13:46N 33°46' W 118°13'0 0.0
2018-Jan-28 13:22N 33°46' W 118°13'0 0.0
2018-Jan-28 01:28N 33°46' W 118°13'0 0.0
2018-Jan-28 00:58N 33°46' W 118°13'0 0.0
2018-Jan-28 00:19N 33°46' W 118°13'0 0.0
2018-Jan-27 23:58N 33°46' W 118°13'0 0.0
2018-Jan-27 23:28N 33°46' W 118°13'0 0.0
2018-Jan-27 22:58N 33°46' W 118°13'0 0.0
2018-Jan-27 22:28N 33°46' W 118°13'0 0.0
2018-Jan-27 21:58N 33°46' W 118°13'0 0.0
2018-Jan-27 21:25N 33°46' W 118°13'0 0.0
2018-Jan-27 20:58N 33°46' W 118°13'0 0.0
2018-Jan-27 20:28N 33°46' W 118°13'0 0.0
2018-Jan-27 19:58N 33°46' W 118°13'0 0.0
2018-Jan-27 19:28N 33°46' W 118°13'0 0.0
2018-Jan-27 18:58N 33°46' W 118°13'0 0.0
2018-Jan-27 18:28N 33°46' W 118°13'0 0.0
2018-Jan-27 17:58N 33°46' W 118°13'0 0.0
2018-Jan-27 17:28N 33°46' W 118°13'0 0.0
2018-Jan-27 16:58N 33°46' W 118°13'0 0.0
2018-Jan-27 16:28N 33°46' W 118°13'0 0.0
2018-Jan-27 15:58N 33°46' W 118°13'0 0.0
2018-Jan-27 15:28N 33°46' W 118°13'0 0.0
2018-Jan-27 14:58N 33°46' W 118°13'0 0.0
2018-Jan-27 12:19N 33°46' W 118°13'0 0.3
2018-Jan-27 12:00N 33°46' W 118°13'1 2.3
2018-Jan-27 11:30N 33°45' W 118°13'3 6.4
2018-Jan-27 11:00N 33°42' W 118°11'4 7.1
2018-Jan-27 10:30N 33°39' W 118°11'611.2
2018-Jan-27 10:00N 33°33' W 118°09'5 9.9
2018-Jan-27 09:30N 33°29' W 118°07'510.6
2018-Jan-27 09:00N 33°24' W 118°05'611.7
2018-Jan-27 08:30N 33°18' W 118°02'612.0
2018-Jan-27 08:00N 33°13' W 117°60'612.0
2018-Jan-27 07:30N 33°07' W 117°57'612.1
2018-Jan-27 07:00N 33°02' W 117°54'612.0
2018-Jan-27 06:30N 32°56' W 117°51'611.9
2018-Jan-27 06:00N 32°51' W 117°49'612.2
2018-Jan-27 05:30N 32°45' W 117°46'612.3
2018-Jan-27 05:00N 32°39' W 117°44'4 7.4
2018-Jan-27 04:30N 32°36' W 117°42'612.0
2018-Jan-27 04:00N 32°30' W 117°40'611.9
2018-Jan-27 03:30N 32°24' W 117°38'612.1
2018-Jan-27 03:00N 32°18' W 117°37'  

Dump ship's entire track history